createdAt,value
2017-09-25T03:03:54.393Z,11.20
2017-09-25T03:06:28.535Z,11.20
2017-09-25T03:08:58.898Z,11.30
2017-09-25T03:11:29.988Z,11.30
2017-09-25T03:14:00.451Z,11.40
2017-09-25T03:16:32.774Z,11.50
2017-09-25T03:19:02.652Z,11.50
2017-09-25T03:21:33.709Z,11.50
2017-09-25T03:24:03.853Z,11.50
2017-09-25T03:26:34.304Z,11.60
2017-09-25T03:29:06.512Z,11.60
2017-09-25T03:31:36.731Z,11.60
2017-09-25T03:34:08.764Z,11.60
2017-09-25T03:36:39.073Z,11.60
2017-09-25T03:39:09.738Z,11.60
2017-09-25T03:41:39.629Z,11.60
2017-09-25T03:44:10.912Z,11.60
2017-09-25T03:46:41.488Z,11.60
2017-09-25T03:49:12.352Z,11.60
2017-09-25T03:51:42.671Z,11.60
2017-09-25T03:54:15.486Z,11.60
2017-09-25T03:56:48.079Z,11.50
2017-09-25T03:59:19.102Z,11.50
2017-09-25T04:01:50.965Z,11.50
2017-09-25T04:04:21.852Z,11.50
2017-09-25T04:06:53.575Z,11.50
2017-09-25T04:09:24.684Z,11.40
2017-09-25T04:11:56.068Z,11.50
2017-09-25T04:14:28.553Z,11.50
2017-09-25T04:16:59.527Z,11.40
2017-09-25T04:19:31.113Z,11.40
2017-09-25T04:22:02.430Z,11.40
2017-09-25T04:24:37.603Z,11.50
2017-09-25T04:27:11.818Z,11.40
2017-09-25T04:29:43.001Z,11.30
2017-09-25T04:32:14.612Z,11.30
2017-09-25T04:34:45.197Z,11.30
2017-09-25T04:39:58.090Z,11.30
2017-09-25T04:42:30.755Z,11.20
2017-09-25T04:45:03.102Z,11.20
2017-09-25T04:47:34.114Z,11.20
2017-09-25T04:50:05.589Z,11.10
2017-09-25T04:52:37.674Z,11.10
2017-09-25T04:55:10.300Z,11.10
2017-09-25T04:57:42.432Z,11.10
2017-09-25T05:00:15.528Z,11.10
2017-09-25T05:02:47.196Z,11.10
2017-09-25T05:05:19.243Z,11.10
2017-09-25T05:07:50.564Z,11.10
2017-09-25T05:10:29.025Z,11.10
2017-09-25T05:13:00.420Z,11.10
2017-09-25T05:15:30.056Z,11.10
2017-09-25T05:18:02.225Z,11.10
2017-09-25T05:20:33.629Z,11.10
2017-09-25T05:23:05.013Z,11.10
2017-09-25T05:25:37.212Z,11.10
2017-09-25T05:28:11.058Z,11.10
2017-09-25T05:30:42.793Z,11.10
2017-09-25T05:33:14.967Z,11.10
2017-09-25T05:35:47.405Z,11.10
2017-09-25T05:38:19.551Z,11.10
2017-09-25T05:40:52.336Z,11.10
2017-09-25T05:43:24.656Z,11.10
2017-09-25T05:45:55.909Z,11.10
2017-09-25T05:48:31.153Z,11.10
2017-09-25T05:51:02.037Z,11.10
2017-09-25T05:53:33.281Z,11.10
2017-09-25T05:56:03.958Z,11.20
2017-09-25T05:58:35.839Z,11.10
2017-09-25T06:01:09.484Z,11.20
2017-09-25T06:03:41.025Z,11.20
2017-09-25T06:06:13.449Z,11.20
2017-09-25T06:08:44.871Z,11.30
2017-09-25T06:11:18.556Z,11.30
2017-09-25T06:13:51.947Z,11.30
2017-09-25T06:16:24.614Z,11.30
2017-09-25T06:18:56.885Z,11.40
2017-09-25T06:21:30.828Z,11.40
2017-09-25T06:24:02.945Z,11.50
2017-09-25T06:26:34.588Z,11.50
2017-09-25T06:29:08.804Z,11.60
2017-09-25T06:31:40.100Z,11.60
2017-09-25T06:34:12.201Z,11.60
2017-09-25T06:36:43.489Z,11.60
2017-09-25T06:39:14.609Z,11.60
2017-09-25T06:41:48.769Z,11.70
2017-09-25T06:44:19.002Z,11.70
2017-09-25T06:46:51.356Z,11.80
2017-09-25T06:49:22.597Z,11.80
2017-09-25T06:51:55.194Z,11.80
2017-09-25T06:57:02.711Z,11.90
2017-09-25T06:59:35.396Z,11.90
2017-09-25T07:02:07.247Z,11.90
2017-09-25T07:04:38.335Z,11.90
2017-09-25T07:07:10.318Z,11.90
2017-09-25T07:09:41.897Z,11.90
2017-09-25T07:12:12.241Z,12.00
2017-09-25T07:14:42.417Z,11.90
2017-09-25T07:17:13.680Z,12.00
2017-09-25T07:19:46.588Z,12.10
2017-09-25T07:22:18.660Z,12.10
2017-09-25T07:24:50.604Z,12.20
2017-09-25T07:27:24.188Z,12.10
2017-09-25T07:29:55.612Z,12.30
2017-09-25T07:32:30.315Z,12.40
2017-09-25T07:35:01.925Z,12.40
2017-09-25T07:37:32.767Z,12.40
2017-09-25T07:40:04.055Z,12.50
2017-09-25T07:42:35.772Z,12.60
2017-09-25T07:45:06.202Z,12.70
2017-09-25T07:47:38.764Z,12.60
2017-09-25T07:50:10.642Z,12.70
2017-09-25T07:52:43.708Z,12.70
2017-09-25T07:55:15.592Z,12.80
2017-09-25T07:57:47.185Z,12.90
2017-09-25T08:00:19.219Z,13.00
2017-09-25T08:02:50.870Z,13.00
2017-09-25T08:05:22.054Z,13.10
2017-09-25T08:07:54.305Z,13.20
2017-09-25T08:10:27.101Z,13.20
2017-09-25T08:12:56.312Z,13.30
2017-09-25T08:15:27.812Z,13.30
2017-09-25T08:17:57.716Z,13.40
2017-09-25T08:20:28.288Z,13.40
2017-09-25T08:23:00.535Z,13.50
2017-09-25T08:25:32.132Z,13.70
2017-09-25T08:28:03.557Z,13.80
2017-09-25T08:30:35.702Z,13.90
2017-09-25T08:33:06.120Z,13.90
2017-09-25T08:35:38.509Z,14.00
2017-09-25T08:38:10.848Z,14.10
2017-09-25T08:40:41.612Z,14.10
2017-09-25T08:43:13.845Z,14.20
2017-09-25T08:45:45.407Z,14.30
2017-09-25T08:48:15.749Z,14.50
2017-09-25T08:50:47.238Z,14.90
2017-09-25T08:53:18.633Z,14.90
2017-09-25T08:55:50.944Z,15.20
2017-09-25T08:58:22.320Z,15.70
2017-09-25T09:00:54.613Z,16.30
2017-09-25T09:03:25.333Z,16.90
2017-09-25T09:05:55.912Z,17.50
2017-09-25T09:08:26.337Z,17.90
2017-09-25T09:10:57.106Z,18.40
2017-09-25T09:13:28.705Z,18.80
2017-09-25T09:16:00.445Z,19.10
2017-09-25T09:18:31.968Z,19.40
2017-09-25T09:21:03.648Z,19.40
2017-09-25T09:23:34.771Z,19.20
2017-09-25T09:26:06.033Z,19.00
2017-09-25T09:28:36.178Z,19.00
2017-09-25T09:31:07.259Z,18.80
2017-09-25T09:33:37.601Z,18.70
2017-09-25T09:36:10.261Z,18.70
2017-09-25T09:38:41.674Z,18.40
2017-09-25T09:41:12.773Z,18.40
2017-09-25T09:43:44.104Z,18.30
2017-09-25T09:46:16.394Z,18.30
2017-09-25T09:48:47.437Z,18.30
2017-09-25T09:51:19.009Z,18.10
2017-09-25T09:53:49.816Z,18.10
2017-09-25T09:56:21.132Z,18.00
2017-09-25T09:58:53.712Z,18.00
2017-09-25T10:01:26.443Z,18.00
2017-09-25T10:03:58.511Z,17.90
2017-09-25T10:06:28.882Z,17.90
2017-09-25T10:09:00.105Z,17.90
2017-09-25T10:11:31.922Z,17.90
2017-09-25T10:14:03.737Z,17.90
2017-09-25T10:16:34.744Z,18.10
2017-09-25T10:19:04.013Z,18.10
2017-09-25T10:21:34.784Z,18.20
2017-09-25T10:24:05.950Z,18.20
2017-09-25T10:26:35.848Z,18.30
2017-09-25T10:29:06.243Z,18.50
2017-09-25T10:31:37.590Z,18.50
2017-09-25T10:34:08.385Z,18.70
2017-09-25T10:36:38.769Z,18.90
2017-09-25T10:39:09.612Z,18.80
2017-09-25T10:41:42.785Z,19.20
2017-09-25T10:44:14.902Z,19.40
2017-09-25T10:46:45.597Z,19.40
2017-09-25T10:49:18.087Z,19.60
2017-09-25T10:51:48.080Z,19.80
2017-09-25T10:54:18.473Z,19.90
2017-09-25T10:56:47.728Z,19.90
2017-09-25T10:59:18.689Z,20.00
2017-09-25T11:01:48.985Z,20.10
2017-09-25T11:04:17.850Z,20.30
2017-09-25T11:06:48.137Z,20.40
2017-09-25T11:09:19.891Z,20.70
2017-09-25T11:11:51.982Z,20.80
2017-09-25T11:14:22.597Z,20.80
2017-09-25T11:16:54.763Z,20.90
2017-09-25T11:19:25.446Z,21.00
2017-09-25T11:21:56.476Z,21.00
2017-09-25T11:24:26.985Z,21.10
2017-09-25T11:27:00.636Z,21.30
2017-09-25T11:29:30.829Z,21.30
2017-09-25T11:32:01.491Z,21.30
2017-09-25T11:34:32.453Z,21.30
2017-09-25T11:37:04.060Z,21.50
2017-09-25T11:39:35.530Z,21.50
2017-09-25T11:42:06.989Z,21.80
2017-09-25T11:44:35.341Z,21.80
2017-09-25T11:47:06.663Z,21.80
2017-09-25T11:49:36.988Z,21.70
2017-09-25T11:52:07.151Z,21.70
2017-09-25T11:54:38.457Z,21.60
2017-09-25T11:57:10.941Z,21.60
2017-09-25T11:59:40.559Z,21.60
2017-09-25T12:02:09.476Z,21.40
2017-09-25T12:04:40.761Z,21.50
2017-09-25T12:07:12.909Z,21.50
2017-09-25T12:09:43.288Z,21.50
2017-09-25T12:12:14.230Z,21.80
2017-09-25T12:14:45.680Z,21.70
2017-09-25T12:17:16.841Z,22.10
2017-09-25T12:19:47.312Z,22.10
2017-09-25T12:22:17.781Z,22.10
2017-09-25T12:24:48.404Z,22.20
2017-09-25T12:27:19.073Z,22.20
2017-09-25T12:29:48.925Z,22.20
2017-09-25T12:32:19.145Z,22.40
2017-09-25T12:34:50.316Z,22.40
2017-09-25T12:37:20.034Z,22.50
2017-09-25T12:39:50.183Z,22.70
2017-09-25T12:42:21.895Z,22.80
2017-09-25T12:44:53.206Z,22.70
2017-09-25T12:47:25.008Z,22.80
2017-09-25T12:49:57.692Z,22.80
2017-09-25T12:52:30.185Z,22.90
2017-09-25T12:55:03.154Z,23.00
2017-09-25T12:57:36.781Z,23.20
2017-09-25T13:00:06.384Z,23.30
2017-09-25T13:02:37.106Z,23.30
2017-09-25T13:05:08.737Z,23.20
2017-09-25T13:07:39.121Z,23.00
2017-09-25T13:10:10.617Z,23.20
2017-09-25T13:12:40.858Z,23.10
2017-09-25T13:15:13.106Z,23.10
2017-09-25T13:17:45.914Z,23.10
2017-09-25T13:20:17.606Z,22.90
2017-09-25T13:22:52.804Z,22.80
2017-09-25T13:25:25.599Z,22.80
2017-09-25T13:28:06.295Z,22.80
2017-09-25T13:30:36.733Z,22.90
2017-09-25T13:33:08.413Z,22.80
2017-09-25T13:35:39.529Z,22.80
2017-09-25T13:38:09.668Z,22.70
2017-09-25T13:40:39.817Z,22.80
2017-09-25T13:43:09.925Z,23.00
2017-09-25T13:45:40.737Z,23.00
2017-09-25T13:48:09.648Z,23.00
2017-09-25T13:50:38.954Z,23.00
2017-09-25T13:53:10.400Z,23.30
2017-09-25T13:55:40.845Z,23.30
2017-09-25T13:58:11.963Z,23.50
2017-09-25T14:03:18.574Z,23.60
2017-09-25T14:05:47.921Z,23.40
2017-09-25T14:08:18.928Z,23.40
2017-09-25T14:10:50.568Z,23.10
2017-09-25T14:13:21.877Z,23.10
2017-09-25T14:15:50.436Z,22.90
2017-09-25T14:18:21.016Z,22.80
2017-09-25T14:20:50.359Z,22.60
2017-09-25T14:23:20.287Z,22.70
2017-09-25T14:25:49.732Z,22.80
2017-09-25T14:28:20.750Z,23.00
2017-09-25T14:30:52.237Z,23.10
2017-09-25T14:33:21.608Z,23.00
2017-09-25T14:35:50.855Z,23.10
2017-09-25T14:38:22.477Z,23.00
2017-09-25T14:40:53.225Z,22.90
2017-09-25T14:43:24.512Z,22.80
2017-09-25T14:45:55.876Z,22.80
2017-09-25T14:48:25.725Z,22.70
2017-09-25T14:50:57.602Z,22.60
2017-09-25T14:53:28.124Z,22.50
2017-09-25T14:55:58.186Z,22.40
2017-09-25T14:58:29.287Z,22.30
2017-09-25T15:00:59.861Z,22.20
2017-09-25T15:03:30.679Z,22.10
2017-09-25T15:06:01.581Z,22.10
2017-09-25T15:08:32.605Z,22.00
2017-09-25T15:11:03.805Z,21.80
2017-09-25T15:13:34.722Z,21.70
2017-09-25T15:16:05.478Z,21.60
2017-09-25T15:18:35.612Z,21.60
2017-09-25T15:21:05.286Z,21.50
2017-09-25T15:23:34.660Z,21.40
2017-09-25T15:26:04.840Z,21.40
2017-09-25T15:28:35.017Z,21.40
2017-09-25T15:31:04.466Z,21.30
2017-09-25T15:33:35.505Z,21.30
2017-09-25T15:36:07.753Z,21.10
2017-09-25T15:38:39.092Z,21.20
2017-09-25T15:41:11.336Z,21.10
2017-09-25T15:43:42.137Z,21.10
2017-09-25T15:46:13.109Z,21.10
2017-09-25T15:48:44.762Z,21.10
2017-09-25T15:51:15.969Z,21.00
2017-09-25T15:53:46.554Z,21.00
2017-09-25T15:56:16.830Z,20.90
2017-09-25T15:58:47.977Z,20.80
2017-09-25T16:01:17.055Z,20.80
2017-09-25T16:03:47.628Z,20.90
2017-09-25T16:06:17.369Z,20.80
2017-09-25T16:08:48.686Z,20.70
2017-09-25T16:11:19.220Z,20.70
2017-09-25T16:13:49.179Z,20.70
2017-09-25T16:16:18.937Z,20.70
2017-09-25T16:19:13.444Z,20.70
2017-09-25T16:22:12.534Z,20.50
2017-09-25T16:24:46.735Z,20.50
2017-09-25T16:27:14.878Z,20.40
2017-09-25T16:29:43.054Z,20.40
2017-09-25T16:32:11.201Z,20.30
2017-09-25T16:34:39.419Z,20.10
2017-09-25T16:37:08.331Z,19.90
2017-09-25T16:39:36.469Z,19.90
2017-09-25T16:42:04.653Z,19.80
2017-09-25T16:44:32.825Z,19.80
2017-09-25T16:47:01.787Z,19.80
2017-09-25T16:49:29.969Z,19.80
2017-09-25T16:51:58.258Z,19.80
2017-09-25T16:54:26.406Z,19.70
2017-09-25T16:56:54.993Z,19.70
2017-09-25T16:59:23.197Z,19.60
2017-09-25T17:01:52.131Z,19.50
2017-09-25T17:04:20.344Z,19.50
2017-09-25T17:06:48.549Z,19.50
2017-09-25T17:09:16.813Z,19.50
2017-09-25T17:11:44.956Z,19.40
2017-09-25T17:14:13.113Z,19.40
2017-09-25T17:16:41.285Z,19.40
2017-09-25T17:19:09.503Z,19.30
2017-09-25T17:21:37.676Z,19.30
2017-09-25T17:24:05.872Z,19.20
2017-09-25T17:26:34.804Z,19.20
2017-09-25T17:29:02.965Z,19.20
2017-09-25T17:31:31.145Z,19.10
2017-09-25T17:33:59.308Z,19.10
2017-09-25T17:36:27.583Z,19.10
2017-09-25T17:38:55.722Z,19.00
2017-09-25T17:41:24.630Z,18.90
2017-09-25T17:43:52.802Z,18.80
2017-09-25T17:46:20.948Z,18.80
2017-09-25T17:48:49.157Z,18.80
2017-09-25T17:51:17.292Z,18.70
2017-09-25T17:53:45.578Z,18.60
2017-09-25T17:56:21.453Z,18.60
2017-09-25T17:58:50.413Z,18.60
2017-09-25T18:01:18.571Z,18.60
2017-09-25T18:03:46.737Z,18.60
2017-09-25T18:06:14.920Z,18.50
2017-09-25T18:08:43.088Z,18.50
2017-09-25T18:11:11.373Z,18.40
2017-09-25T18:13:39.897Z,18.30
2017-09-25T18:16:08.098Z,18.30
2017-09-25T18:18:36.262Z,18.20
2017-09-25T18:21:04.436Z,18.10
2017-09-25T18:23:33.776Z,18.10
2017-09-25T18:26:01.923Z,18.10
2017-09-25T18:28:30.076Z,18.10
2017-09-25T18:30:58.234Z,18.00
2017-09-25T18:33:27.299Z,18.00
2017-09-25T18:35:55.467Z,18.00
2017-09-25T18:38:23.666Z,18.00
2017-09-25T18:40:52.602Z,17.90
2017-09-25T18:43:20.801Z,17.80
2017-09-25T18:45:49.049Z,17.80
2017-09-25T18:48:17.244Z,17.80
2017-09-25T18:50:45.498Z,17.80
2017-09-25T18:53:13.668Z,17.80
2017-09-25T18:55:41.868Z,17.80
2017-09-25T18:58:10.122Z,17.80
2017-09-25T19:00:38.484Z,17.70
2017-09-25T19:03:06.623Z,17.70
2017-09-25T19:05:34.806Z,17.70
2017-09-25T19:08:03.209Z,17.60
2017-09-25T19:10:31.356Z,17.60
2017-09-25T19:13:00.297Z,17.60
2017-09-25T19:15:36.200Z,17.60
2017-09-25T19:18:12.027Z,17.60
2017-09-25T19:20:40.421Z,17.50
2017-09-25T19:23:08.576Z,17.50
2017-09-25T19:25:36.748Z,17.50
2017-09-25T19:28:04.887Z,17.50
2017-09-25T19:30:33.114Z,17.50
2017-09-25T19:33:04.492Z,17.40
2017-09-25T19:35:33.870Z,17.40
2017-09-25T19:38:02.059Z,17.40
2017-09-25T19:40:31.125Z,17.30
2017-09-25T19:42:59.380Z,17.30
2017-09-25T19:45:27.542Z,17.20
2017-09-25T19:47:56.525Z,17.10
2017-09-25T19:50:24.928Z,17.00
2017-09-25T19:52:53.140Z,17.00
2017-09-25T19:55:21.305Z,17.00
2017-09-25T19:57:49.469Z,16.90
2017-09-25T20:00:17.659Z,16.80
2017-09-25T20:02:45.859Z,16.80
2017-09-25T20:05:14.768Z,16.70
2017-09-25T20:07:42.932Z,16.70
2017-09-25T20:10:11.892Z,16.70
2017-09-25T20:12:40.826Z,16.70
2017-09-25T20:15:09.056Z,16.70
2017-09-25T20:17:37.216Z,16.70
2017-09-25T20:20:05.371Z,16.60
2017-09-25T20:22:33.550Z,16.60
2017-09-25T20:25:01.696Z,16.60
2017-09-25T20:27:29.878Z,16.50
2017-09-25T20:29:58.044Z,16.50
2017-09-25T20:32:26.250Z,16.50
2017-09-25T20:34:54.412Z,16.50
2017-09-25T20:37:22.604Z,16.40
2017-09-25T20:39:50.789Z,16.40
2017-09-25T20:42:18.935Z,16.40
2017-09-25T20:44:47.124Z,16.30
2017-09-25T20:47:15.270Z,16.30
2017-09-25T20:49:43.565Z,16.20
2017-09-25T20:52:11.709Z,16.20
2017-09-25T20:54:39.902Z,16.20
2017-09-25T20:57:08.057Z,16.20
2017-09-25T20:59:36.237Z,16.20
2017-09-25T21:02:04.410Z,16.10
2017-09-25T21:04:32.559Z,16.10
2017-09-25T21:07:00.706Z,16.10
2017-09-25T21:09:28.852Z,16.00
2017-09-25T21:11:57.020Z,16.00
2017-09-25T21:14:25.178Z,15.90
2017-09-25T21:16:53.388Z,15.90
2017-09-25T21:19:21.529Z,15.90
2017-09-25T21:21:49.815Z,15.90
2017-09-25T21:24:17.962Z,15.80
2017-09-25T21:26:46.130Z,15.70
2017-09-25T21:29:14.330Z,15.70
2017-09-25T21:31:42.468Z,15.60
2017-09-25T21:34:10.649Z,15.50
2017-09-25T21:36:38.800Z,15.50
2017-09-25T21:39:07.754Z,15.40
2017-09-25T21:41:35.907Z,15.40
2017-09-25T21:44:04.056Z,15.40
2017-09-25T21:46:32.239Z,15.40
2017-09-25T21:49:00.424Z,15.40
2017-09-25T21:51:28.572Z,15.40
2017-09-25T21:53:56.731Z,15.40
2017-09-25T21:56:25.014Z,15.40
2017-09-25T21:58:53.176Z,15.30
2017-09-25T22:01:22.093Z,15.30
2017-09-25T22:03:50.272Z,15.30
2017-09-25T22:06:18.429Z,15.20
2017-09-25T22:08:46.583Z,15.30
2017-09-25T22:11:15.656Z,15.20
2017-09-25T22:13:43.845Z,15.20
2017-09-25T22:16:12.039Z,15.20
2017-09-25T22:18:40.196Z,15.20
2017-09-25T22:21:08.401Z,15.10
2017-09-25T22:23:37.309Z,15.10
2017-09-25T22:26:05.489Z,15.10
2017-09-25T22:28:33.638Z,15.10
2017-09-25T22:31:01.933Z,15.00
2017-09-25T22:33:30.108Z,14.90
2017-09-25T22:35:58.270Z,14.90
2017-09-25T22:38:26.462Z,15.00
2017-09-25T22:40:54.597Z,15.00
2017-09-25T22:43:23.545Z,14.90
2017-09-25T22:45:51.697Z,14.90
2017-09-25T22:48:19.996Z,14.90
2017-09-25T22:50:48.141Z,14.90
2017-09-25T22:53:16.333Z,14.90
2017-09-25T22:55:44.481Z,14.90
2017-09-25T22:58:12.640Z,14.90
2017-09-25T23:00:40.820Z,14.90
2017-09-25T23:03:09.956Z,14.90
2017-09-25T23:05:38.244Z,14.90
2017-09-25T23:08:06.436Z,14.90
2017-09-25T23:10:34.656Z,14.90
2017-09-25T23:13:02.789Z,14.90
2017-09-25T23:15:31.739Z,14.90
2017-09-25T23:17:59.909Z,14.80
2017-09-25T23:20:28.210Z,14.90
2017-09-25T23:22:56.352Z,14.90
2017-09-25T23:25:24.516Z,14.80
2017-09-25T23:27:52.689Z,14.80
2017-09-25T23:30:20.837Z,14.80
2017-09-25T23:32:49.899Z,14.70
2017-09-25T23:35:18.055Z,14.70
2017-09-25T23:37:46.270Z,14.70
2017-09-25T23:40:15.198Z,14.60
2017-09-25T23:42:43.352Z,14.60
2017-09-25T23:45:12.290Z,14.60
2017-09-25T23:47:40.441Z,14.60
2017-09-25T23:50:08.747Z,14.60
2017-09-25T23:52:36.936Z,14.60
2017-09-25T23:55:05.146Z,14.60
2017-09-25T23:57:33.296Z,14.60
